sensor_id;sensor_type;location;lat;lon;timestamp;temperature;humidity
30063;DHT22;16889;67.864;24.990;2023-04-24T00:00:25;-9.00;99.90
30063;DHT22;16889;67.864;24.990;2023-04-24T00:05:15;-9.10;99.90
30063;DHT22;16889;67.864;24.990;2023-04-24T00:10:03;-9.10;99.90
30063;DHT22;16889;67.864;24.990;2023-04-24T00:14:49;-9.40;99.90
30063;DHT22;16889;67.864;24.990;2023-04-24T00:19:35;-9.50;99.90
30063;DHT22;16889;67.864;24.990;2023-04-24T00:24:21;-9.50;99.90
30063;DHT22;16889;67.864;24.990;2023-04-24T00:29:07;-9.50;99.90
30063;DHT22;16889;67.864;24.990;2023-04-24T00:33:53;-9.50;99.90
30063;DHT22;16889;67.864;24.990;2023-04-24T00:38:39;-9.60;99.90
30063;DHT22;16889;67.864;24.990;2023-04-24T00:43:25;-9.80;99.90
30063;DHT22;16889;67.864;24.990;2023-04-24T00:48:12;-10.20;99.90
30063;DHT22;16889;67.864;24.990;2023-04-24T00:52:57;-10.20;99.90
30063;DHT22;16889;67.864;24.990;2023-04-24T00:57:44;-10.10;99.90
30063;DHT22;16889;67.864;24.990;2023-04-24T01:02:30;-10.20;99.90
30063;DHT22;16889;67.864;24.990;2023-04-24T01:07:20;-10.30;99.90
30063;DHT22;16889;67.864;24.990;2023-04-24T01:12:06;-10.40;99.90
30063;DHT22;16889;67.864;24.990;2023-04-24T01:16:52;-10.30;99.90
30063;DHT22;16889;67.864;24.990;2023-04-24T01:21:39;-10.40;99.90
30063;DHT22;16889;67.864;24.990;2023-04-24T01:26:25;-10.60;99.90
30063;DHT22;16889;67.864;24.990;2023-04-24T01:31:11;-10.70;99.90
30063;DHT22;16889;67.864;24.990;2023-04-24T01:35:58;-10.80;99.90
30063;DHT22;16889;67.864;24.990;2023-04-24T01:40:43;-10.60;99.90
30063;DHT22;16889;67.864;24.990;2023-04-24T01:45:29;-10.70;99.90
30063;DHT22;16889;67.864;24.990;2023-04-24T01:50:16;-10.90;99.90
30063;DHT22;16889;67.864;24.990;2023-04-24T01:55:03;-10.80;99.90
30063;DHT22;16889;67.864;24.990;2023-04-24T01:59:50;-10.90;99.90
30063;DHT22;16889;67.864;24.990;2023-04-24T02:04:36;-11.00;99.90
30063;DHT22;16889;67.864;24.990;2023-04-24T02:09:22;-11.00;99.90
30063;DHT22;16889;67.864;24.990;2023-04-24T02:14:08;-10.90;99.90
30063;DHT22;16889;67.864;24.990;2023-04-24T02:18:54;-10.90;99.90
30063;DHT22;16889;67.864;24.990;2023-04-24T02:23:40;-10.80;99.90
30063;DHT22;16889;67.864;24.990;2023-04-24T02:28:26;-11.10;99.90
30063;DHT22;16889;67.864;24.990;2023-04-24T02:33:12;-11.30;99.90
30063;DHT22;16889;67.864;24.990;2023-04-24T02:37:58;-11.20;99.90
30063;DHT22;16889;67.864;24.990;2023-04-24T02:42:44;-11.20;99.90
30063;DHT22;16889;67.864;24.990;2023-04-24T02:47:30;-10.80;99.90
30063;DHT22;16889;67.864;24.990;2023-04-24T02:52:16;-10.60;99.90
30063;DHT22;16889;67.864;24.990;2023-04-24T02:57:02;-10.50;99.90
30063;DHT22;16889;67.864;24.990;2023-04-24T03:01:48;-10.60;99.90
30063;DHT22;16889;67.864;24.990;2023-04-24T03:06:34;-10.50;99.90
30063;DHT22;16889;67.864;24.990;2023-04-24T03:11:21;-10.40;99.90
30063;DHT22;16889;67.864;24.990;2023-04-24T03:16:07;-10.40;99.90
30063;DHT22;16889;67.864;24.990;2023-04-24T03:20:53;-10.20;99.90
30063;DHT22;16889;67.864;24.990;2023-04-24T03:25:39;-10.20;99.90
30063;DHT22;16889;67.864;24.990;2023-04-24T03:30:25;-10.00;99.90
30063;DHT22;16889;67.864;24.990;2023-04-24T03:35:11;-9.80;99.90
30063;DHT22;16889;67.864;24.990;2023-04-24T03:39:57;-9.50;99.90
30063;DHT22;16889;67.864;24.990;2023-04-24T03:44:43;-8.70;99.90
30063;DHT22;16889;67.864;24.990;2023-04-24T03:49:28;-8.00;99.90
30063;DHT22;16889;67.864;24.990;2023-04-24T03:54:15;-7.80;99.90
30063;DHT22;16889;67.864;24.990;2023-04-24T03:59:00;-7.80;99.90
30063;DHT22;16889;67.864;24.990;2023-04-24T04:03:46;-7.70;99.90
30063;DHT22;16889;67.864;24.990;2023-04-24T04:08:33;-7.10;99.90
30063;DHT22;16889;67.864;24.990;2023-04-24T04:13:19;-6.10;99.90
30063;DHT22;16889;67.864;24.990;2023-04-24T04:18:05;-5.60;99.90
30063;DHT22;16889;67.864;24.990;2023-04-24T04:22:51;-5.90;99.90
30063;DHT22;16889;67.864;24.990;2023-04-24T04:27:37;-6.00;99.90
30063;DHT22;16889;67.864;24.990;2023-04-24T04:32:23;-6.30;99.90
30063;DHT22;16889;67.864;24.990;2023-04-24T04:37:09;-6.10;99.90
30063;DHT22;16889;67.864;24.990;2023-04-24T04:41:56;-6.20;99.90
30063;DHT22;16889;67.864;24.990;2023-04-24T04:46:44;-5.20;99.90
30063;DHT22;16889;67.864;24.990;2023-04-24T04:51:30;-5.00;99.90
30063;DHT22;16889;67.864;24.990;2023-04-24T04:56:16;-5.00;99.90
30063;DHT22;16889;67.864;24.990;2023-04-24T05:01:02;-5.10;99.90
30063;DHT22;16889;67.864;24.990;2023-04-24T05:05:48;-4.80;99.90
30063;DHT22;16889;67.864;24.990;2023-04-24T05:10:35;-4.80;99.90
30063;DHT22;16889;67.864;24.990;2023-04-24T05:15:22;-4.70;99.90
30063;DHT22;16889;67.864;24.990;2023-04-24T05:20:08;-4.10;99.90
30063;DHT22;16889;67.864;24.990;2023-04-24T05:24:55;-3.60;99.90
30063;DHT22;16889;67.864;24.990;2023-04-24T05:29:41;-3.30;99.90
30063;DHT22;16889;67.864;24.990;2023-04-24T05:34:27;-3.10;99.90
30063;DHT22;16889;67.864;24.990;2023-04-24T05:39:13;-2.80;99.30
30063;DHT22;16889;67.864;24.990;2023-04-24T05:43:59;-2.50;98.30
30063;DHT22;16889;67.864;24.990;2023-04-24T05:48:45;-2.30;98.30
30063;DHT22;16889;67.864;24.990;2023-04-24T05:53:31;-1.60;96.30
30063;DHT22;16889;67.864;24.990;2023-04-24T05:58:17;-1.00;94.50
30063;DHT22;16889;67.864;24.990;2023-04-24T06:03:03;-0.20;90.90
30063;DHT22;16889;67.864;24.990;2023-04-24T06:07:49;0.00;89.90
30063;DHT22;16889;67.864;24.990;2023-04-24T06:12:35;0.40;86.60
30063;DHT22;16889;67.864;24.990;2023-04-24T06:17:22;0.70;89.90
30063;DHT22;16889;67.864;24.990;2023-04-24T06:22:08;1.60;83.60
30063;DHT22;16889;67.864;24.990;2023-04-24T06:26:54;2.70;72.60
30063;DHT22;16889;67.864;24.990;2023-04-24T06:31:39;3.10;69.50
30063;DHT22;16889;67.864;24.990;2023-04-24T06:36:25;3.10;67.20
30063;DHT22;16889;67.864;24.990;2023-04-24T06:41:11;3.00;64.20
30063;DHT22;16889;67.864;24.990;2023-04-24T06:45:59;2.20;68.30
30063;DHT22;16889;67.864;24.990;2023-04-24T06:50:45;2.80;67.10
30063;DHT22;16889;67.864;24.990;2023-04-24T06:55:32;5.10;59.40
30063;DHT22;16889;67.864;24.990;2023-04-24T07:00:18;7.30;51.30
30063;DHT22;16889;67.864;24.990;2023-04-24T07:05:05;8.20;47.80
30063;DHT22;16889;67.864;24.990;2023-04-24T07:09:57;8.60;44.90
30063;DHT22;16889;67.864;24.990;2023-04-24T07:14:43;9.10;43.60
30063;DHT22;16889;67.864;24.990;2023-04-24T07:19:29;8.20;46.40
30063;DHT22;16889;67.864;24.990;2023-04-24T07:24:16;8.20;46.00
30063;DHT22;16889;67.864;24.990;2023-04-24T07:29:02;8.30;44.80
30063;DHT22;16889;67.864;24.990;2023-04-24T07:33:48;8.20;45.80
30063;DHT22;16889;67.864;24.990;2023-04-24T07:38:34;7.60;47.60
30063;DHT22;16889;67.864;24.990;2023-04-24T07:43:20;7.70;47.60
30063;DHT22;16889;67.864;24.990;2023-04-24T07:48:07;7.80;46.70
30063;DHT22;16889;67.864;24.990;2023-04-24T07:52:54;6.90;48.00
30063;DHT22;16889;67.864;24.990;2023-04-24T07:57:40;6.50;50.20
30063;DHT22;16889;67.864;24.990;2023-04-24T08:02:26;6.00;50.70
30063;DHT22;16889;67.864;24.990;2023-04-24T08:07:12;5.50;51.60
30063;DHT22;16889;67.864;24.990;2023-04-24T08:11:58;5.60;52.50
30063;DHT22;16889;67.864;24.990;2023-04-24T08:16:44;7.00;49.90
30063;DHT22;16889;67.864;24.990;2023-04-24T08:21:30;10.10;44.40
30063;DHT22;16889;67.864;24.990;2023-04-24T08:26:17;11.80;39.90
30063;DHT22;16889;67.864;24.990;2023-04-24T08:31:03;11.80;37.60
30063;DHT22;16889;67.864;24.990;2023-04-24T08:35:49;11.70;39.60
30063;DHT22;16889;67.864;24.990;2023-04-24T08:40:37;11.20;39.20
30063;DHT22;16889;67.864;24.990;2023-04-24T08:45:24;9.20;41.90
30063;DHT22;16889;67.864;24.990;2023-04-24T08:50:10;8.00;45.50
30063;DHT22;16889;67.864;24.990;2023-04-24T08:54:57;6.50;47.00
30063;DHT22;16889;67.864;24.990;2023-04-24T08:59:44;5.30;48.80
30063;DHT22;16889;67.864;24.990;2023-04-24T09:04:32;5.40;51.50
30063;DHT22;16889;67.864;24.990;2023-04-24T09:09:19;5.00;52.80
30063;DHT22;16889;67.864;24.990;2023-04-24T09:14:05;5.00;52.40
30063;DHT22;16889;67.864;24.990;2023-04-24T09:18:53;4.90;50.80
30063;DHT22;16889;67.864;24.990;2023-04-24T09:23:39;4.80;53.10
30063;DHT22;16889;67.864;24.990;2023-04-24T09:28:30;4.90;52.90
30063;DHT22;16889;67.864;24.990;2023-04-24T09:33:16;4.90;52.30
30063;DHT22;16889;67.864;24.990;2023-04-24T09:38:02;4.60;51.70
30063;DHT22;16889;67.864;24.990;2023-04-24T09:42:57;4.40;53.90
30063;DHT22;16889;67.864;24.990;2023-04-24T09:47:46;5.10;54.10
30063;DHT22;16889;67.864;24.990;2023-04-24T09:52:40;5.60;51.90
30063;DHT22;16889;67.864;24.990;2023-04-24T09:57:26;7.00;51.20
30063;DHT22;16889;67.864;24.990;2023-04-24T10:02:21;9.10;46.40
30063;DHT22;16889;67.864;24.990;2023-04-24T10:07:08;11.30;40.90
30063;DHT22;16889;67.864;24.990;2023-04-24T10:11:55;12.00;36.60
30063;DHT22;16889;67.864;24.990;2023-04-24T10:16:42;11.40;39.30
30063;DHT22;16889;67.864;24.990;2023-04-24T10:21:28;11.90;36.80
30063;DHT22;16889;67.864;24.990;2023-04-24T10:26:17;13.50;35.20
30063;DHT22;16889;67.864;24.990;2023-04-24T10:31:03;13.50;34.60
30063;DHT22;16889;67.864;24.990;2023-04-24T10:35:51;14.10;35.40
30063;DHT22;16889;67.864;24.990;2023-04-24T10:40:37;14.70;32.60
30063;DHT22;16889;67.864;24.990;2023-04-24T10:45:24;14.00;35.70
30063;DHT22;16889;67.864;24.990;2023-04-24T10:50:10;13.70;32.50
30063;DHT22;16889;67.864;24.990;2023-04-24T10:55:01;12.30;36.30
30063;DHT22;16889;67.864;24.990;2023-04-24T10:59:52;10.40;38.90
30063;DHT22;16889;67.864;24.990;2023-04-24T11:04:55;8.80;40.90
30063;DHT22;16889;67.864;24.990;2023-04-24T11:09:42;8.40;43.30
30063;DHT22;16889;67.864;24.990;2023-04-24T11:14:28;7.40;47.00
30063;DHT22;16889;67.864;24.990;2023-04-24T11:29:13;7.50;48.10
30063;DHT22;16889;67.864;24.990;2023-04-24T11:34:09;7.70;46.70
30063;DHT22;16889;67.864;24.990;2023-04-24T11:38:56;7.30;47.00
30063;DHT22;16889;67.864;24.990;2023-04-24T11:43:43;6.90;48.40
30063;DHT22;16889;67.864;24.990;2023-04-24T11:48:29;7.20;50.10
30063;DHT22;16889;67.864;24.990;2023-04-24T11:53:19;6.70;49.20
30063;DHT22;16889;67.864;24.990;2023-04-24T11:58:06;5.70;51.80
30063;DHT22;16889;67.864;24.990;2023-04-24T12:03:09;5.00;56.00
30063;DHT22;16889;67.864;24.990;2023-04-24T12:07:55;4.90;55.00
30063;DHT22;16889;67.864;24.990;2023-04-24T12:12:41;4.30;51.30
30063;DHT22;16889;67.864;24.990;2023-04-24T12:17:29;3.80;52.90
30063;DHT22;16889;67.864;24.990;2023-04-24T12:22:16;3.50;53.80
30063;DHT22;16889;67.864;24.990;2023-04-24T12:27:02;3.70;53.40
30063;DHT22;16889;67.864;24.990;2023-04-24T12:31:48;4.10;51.50
30063;DHT22;16889;67.864;24.990;2023-04-24T12:36:35;4.60;50.90
30063;DHT22;16889;67.864;24.990;2023-04-24T12:41:21;4.40;51.40
30063;DHT22;16889;67.864;24.990;2023-04-24T12:46:07;4.40;53.20
30063;DHT22;16889;67.864;24.990;2023-04-24T12:50:53;4.30;52.70
30063;DHT22;16889;67.864;24.990;2023-04-24T12:55:39;4.50;51.60
30063;DHT22;16889;67.864;24.990;2023-04-24T13:00:25;5.10;52.50
30063;DHT22;16889;67.864;24.990;2023-04-24T13:05:11;5.50;49.00
30063;DHT22;16889;67.864;24.990;2023-04-24T13:09:59;5.60;51.60
30063;DHT22;16889;67.864;24.990;2023-04-24T13:14:45;5.00;50.00
30063;DHT22;16889;67.864;24.990;2023-04-24T13:19:39;4.50;50.90
30063;DHT22;16889;67.864;24.990;2023-04-24T13:24:26;4.00;53.90
30063;DHT22;16889;67.864;24.990;2023-04-24T13:29:11;3.90;50.30
30063;DHT22;16889;67.864;24.990;2023-04-24T13:33:57;4.10;54.40
30063;DHT22;16889;67.864;24.990;2023-04-24T13:38:46;4.10;54.30
30063;DHT22;16889;67.864;24.990;2023-04-24T13:43:32;5.20;52.40
30063;DHT22;16889;67.864;24.990;2023-04-24T13:48:18;5.20;48.00
30063;DHT22;16889;67.864;24.990;2023-04-24T13:53:04;4.80;48.90
30063;DHT22;16889;67.864;24.990;2023-04-24T13:57:50;4.30;52.80
30063;DHT22;16889;67.864;24.990;2023-04-24T14:02:37;4.20;53.00
30063;DHT22;16889;67.864;24.990;2023-04-24T14:07:23;4.10;54.10
30063;DHT22;16889;67.864;24.990;2023-04-24T14:12:09;4.20;54.50
30063;DHT22;16889;67.864;24.990;2023-04-24T14:16:55;4.60;58.30
30063;DHT22;16889;67.864;24.990;2023-04-24T14:21:41;5.00;55.40
30063;DHT22;16889;67.864;24.990;2023-04-24T14:26:27;5.80;53.30
30063;DHT22;16889;67.864;24.990;2023-04-24T14:31:13;5.70;50.30
30063;DHT22;16889;67.864;24.990;2023-04-24T14:35:59;5.30;53.30
30063;DHT22;16889;67.864;24.990;2023-04-24T14:40:45;5.30;51.50
30063;DHT22;16889;67.864;24.990;2023-04-24T14:45:31;4.90;51.30
30063;DHT22;16889;67.864;24.990;2023-04-24T14:50:17;4.60;53.00
30063;DHT22;16889;67.864;24.990;2023-04-24T14:55:03;4.70;53.80
30063;DHT22;16889;67.864;24.990;2023-04-24T14:59:49;5.10;51.30
30063;DHT22;16889;67.864;24.990;2023-04-24T15:04:36;5.10;57.50
30063;DHT22;16889;67.864;24.990;2023-04-24T15:09:22;5.00;57.70
30063;DHT22;16889;67.864;24.990;2023-04-24T15:14:09;4.90;57.40
30063;DHT22;16889;67.864;24.990;2023-04-24T15:18:55;5.20;53.10
30063;DHT22;16889;67.864;24.990;2023-04-24T15:23:42;5.10;56.60
30063;DHT22;16889;67.864;24.990;2023-04-24T15:28:28;4.90;53.00
30063;DHT22;16889;67.864;24.990;2023-04-24T15:33:14;4.40;53.80
30063;DHT22;16889;67.864;24.990;2023-04-24T15:38:01;4.20;52.90
30063;DHT22;16889;67.864;24.990;2023-04-24T15:42:47;4.00;56.60
30063;DHT22;16889;67.864;24.990;2023-04-24T15:47:34;4.00;54.90
30063;DHT22;16889;67.864;24.990;2023-04-24T15:52:21;3.90;58.30
30063;DHT22;16889;67.864;24.990;2023-04-24T15:57:07;3.90;59.70
30063;DHT22;16889;67.864;24.990;2023-04-24T16:01:53;3.90;61.90
30063;DHT22;16889;67.864;24.990;2023-04-24T16:06:40;3.80;62.40
30063;DHT22;16889;67.864;24.990;2023-04-24T16:11:26;4.10;58.90
30063;DHT22;16889;67.864;24.990;2023-04-24T16:16:12;4.20;56.40
30063;DHT22;16889;67.864;24.990;2023-04-24T16:20:58;4.20;55.00
30063;DHT22;16889;67.864;24.990;2023-04-24T16:25:44;4.20;57.50
30063;DHT22;16889;67.864;24.990;2023-04-24T16:30:30;4.30;55.90
30063;DHT22;16889;67.864;24.990;2023-04-24T16:35:16;4.10;55.60
30063;DHT22;16889;67.864;24.990;2023-04-24T16:40:02;4.00;55.60
30063;DHT22;16889;67.864;24.990;2023-04-24T16:44:55;3.70;59.10
30063;DHT22;16889;67.864;24.990;2023-04-24T16:49:41;3.50;68.80
30063;DHT22;16889;67.864;24.990;2023-04-24T16:54:27;3.50;65.50
30063;DHT22;16889;67.864;24.990;2023-04-24T16:59:14;3.00;71.00
30063;DHT22;16889;67.864;24.990;2023-04-24T17:04:00;2.80;72.00
30063;DHT22;16889;67.864;24.990;2023-04-24T17:08:46;2.70;73.20
30063;DHT22;16889;67.864;24.990;2023-04-24T17:13:32;2.40;74.90
30063;DHT22;16889;67.864;24.990;2023-04-24T17:18:18;2.20;76.40
30063;DHT22;16889;67.864;24.990;2023-04-24T17:23:04;2.10;77.30
30063;DHT22;16889;67.864;24.990;2023-04-24T17:27:50;1.90;78.00
30063;DHT22;16889;67.864;24.990;2023-04-24T17:32:36;1.90;79.60
30063;DHT22;16889;67.864;24.990;2023-04-24T17:37:22;1.80;80.50
30063;DHT22;16889;67.864;24.990;2023-04-24T17:42:09;1.40;80.20
30063;DHT22;16889;67.864;24.990;2023-04-24T17:46:55;1.20;81.30
30063;DHT22;16889;67.864;24.990;2023-04-24T17:51:41;1.30;82.90
30063;DHT22;16889;67.864;24.990;2023-04-24T17:56:27;1.20;83.20
30063;DHT22;16889;67.864;24.990;2023-04-24T18:01:13;1.10;83.30
30063;DHT22;16889;67.864;24.990;2023-04-24T18:05:59;0.90;82.80
30063;DHT22;16889;67.864;24.990;2023-04-24T18:10:45;0.90;82.80
30063;DHT22;16889;67.864;24.990;2023-04-24T18:15:31;0.60;84.90
30063;DHT22;16889;67.864;24.990;2023-04-24T18:20:18;0.30;88.40
30063;DHT22;16889;67.864;24.990;2023-04-24T18:25:04;0.10;88.50
30063;DHT22;16889;67.864;24.990;2023-04-24T18:29:51;0.10;88.70
30063;DHT22;16889;67.864;24.990;2023-04-24T18:34:37;-0.10;90.80
30063;DHT22;16889;67.864;24.990;2023-04-24T18:39:23;-0.30;91.50
30063;DHT22;16889;67.864;24.990;2023-04-24T18:44:09;-0.30;90.30
30063;DHT22;16889;67.864;24.990;2023-04-24T18:48:56;-0.60;92.50
30063;DHT22;16889;67.864;24.990;2023-04-24T18:53:42;-0.50;91.40
30063;DHT22;16889;67.864;24.990;2023-04-24T18:58:27;-0.60;92.20
30063;DHT22;16889;67.864;24.990;2023-04-24T19:03:13;-0.80;92.90
30063;DHT22;16889;67.864;24.990;2023-04-24T19:07:59;-0.90;93.60
30063;DHT22;16889;67.864;24.990;2023-04-24T19:12:45;-1.00;93.90
30063;DHT22;16889;67.864;24.990;2023-04-24T19:17:31;-1.20;95.10
30063;DHT22;16889;67.864;24.990;2023-04-24T19:22:18;-1.30;95.30
30063;DHT22;16889;67.864;24.990;2023-04-24T19:27:05;-1.40;98.10
30063;DHT22;16889;67.864;24.990;2023-04-24T19:31:51;-1.60;99.90
30063;DHT22;16889;67.864;24.990;2023-04-24T19:36:39;-1.70;99.90
30063;DHT22;16889;67.864;24.990;2023-04-24T19:41:25;-1.80;99.90
30063;DHT22;16889;67.864;24.990;2023-04-24T19:46:10;-1.90;99.90
30063;DHT22;16889;67.864;24.990;2023-04-24T19:50:57;-2.00;99.90
30063;DHT22;16889;67.864;24.990;2023-04-24T19:55:44;-2.10;99.90
30063;DHT22;16889;67.864;24.990;2023-04-24T20:00:30;-2.20;99.90
30063;DHT22;16889;67.864;24.990;2023-04-24T20:05:16;-2.30;99.90
30063;DHT22;16889;67.864;24.990;2023-04-24T20:10:02;-2.40;99.90
30063;DHT22;16889;67.864;24.990;2023-04-24T20:14:49;-2.50;99.90
30063;DHT22;16889;67.864;24.990;2023-04-24T20:19:35;-2.50;99.90
30063;DHT22;16889;67.864;24.990;2023-04-24T20:24:21;-2.70;99.90
30063;DHT22;16889;67.864;24.990;2023-04-24T20:29:07;-2.80;99.90
30063;DHT22;16889;67.864;24.990;2023-04-24T20:33:53;-2.90;99.90
30063;DHT22;16889;67.864;24.990;2023-04-24T20:38:39;-3.00;99.90
30063;DHT22;16889;67.864;24.990;2023-04-24T20:43:25;-3.10;99.90
30063;DHT22;16889;67.864;24.990;2023-04-24T20:48:11;-3.10;99.90
30063;DHT22;16889;67.864;24.990;2023-04-24T20:52:58;-3.20;99.90
30063;DHT22;16889;67.864;24.990;2023-04-24T20:57:44;-3.30;99.90
30063;DHT22;16889;67.864;24.990;2023-04-24T21:02:30;-3.40;99.90
30063;DHT22;16889;67.864;24.990;2023-04-24T21:07:16;-3.50;99.90
30063;DHT22;16889;67.864;24.990;2023-04-24T21:12:02;-3.60;99.90
30063;DHT22;16889;67.864;24.990;2023-04-24T21:16:48;-3.60;99.90
30063;DHT22;16889;67.864;24.990;2023-04-24T21:21:34;-3.70;99.90
30063;DHT22;16889;67.864;24.990;2023-04-24T21:26:20;-3.80;99.90
30063;DHT22;16889;67.864;24.990;2023-04-24T21:31:06;-3.80;99.90
30063;DHT22;16889;67.864;24.990;2023-04-24T21:35:52;-3.90;99.90
30063;DHT22;16889;67.864;24.990;2023-04-24T21:40:39;-4.00;99.90
30063;DHT22;16889;67.864;24.990;2023-04-24T21:45:25;-4.10;99.90
30063;DHT22;16889;67.864;24.990;2023-04-24T21:50:11;-4.10;99.90
30063;DHT22;16889;67.864;24.990;2023-04-24T21:54:57;-4.20;99.90
30063;DHT22;16889;67.864;24.990;2023-04-24T21:59:43;-4.50;99.90
30063;DHT22;16889;67.864;24.990;2023-04-24T22:04:29;-4.60;99.90
30063;DHT22;16889;67.864;24.990;2023-04-24T22:09:15;-4.60;99.90
30063;DHT22;16889;67.864;24.990;2023-04-24T22:14:01;-4.60;99.90
30063;DHT22;16889;67.864;24.990;2023-04-24T22:18:48;-4.60;99.90
30063;DHT22;16889;67.864;24.990;2023-04-24T22:23:34;-4.60;99.90
30063;DHT22;16889;67.864;24.990;2023-04-24T22:28:19;-4.70;99.90
30063;DHT22;16889;67.864;24.990;2023-04-24T22:33:06;-4.80;99.90
30063;DHT22;16889;67.864;24.990;2023-04-24T22:37:55;-4.80;99.90
30063;DHT22;16889;67.864;24.990;2023-04-24T22:42:41;-4.90;99.90
30063;DHT22;16889;67.864;24.990;2023-04-24T22:47:27;-5.00;99.90
30063;DHT22;16889;67.864;24.990;2023-04-24T22:52:13;-5.10;99.90
30063;DHT22;16889;67.864;24.990;2023-04-24T22:57:00;-5.10;99.90
30063;DHT22;16889;67.864;24.990;2023-04-24T23:01:48;-5.20;99.90
30063;DHT22;16889;67.864;24.990;2023-04-24T23:06:34;-5.30;99.90
30063;DHT22;16889;67.864;24.990;2023-04-24T23:11:20;-5.40;99.90
30063;DHT22;16889;67.864;24.990;2023-04-24T23:16:06;-5.50;99.90
30063;DHT22;16889;67.864;24.990;2023-04-24T23:20:52;-5.50;99.90
30063;DHT22;16889;67.864;24.990;2023-04-24T23:25:39;-5.60;99.90
30063;DHT22;16889;67.864;24.990;2023-04-24T23:30:25;-5.70;99.90
30063;DHT22;16889;67.864;24.990;2023-04-24T23:35:12;-5.70;99.90
30063;DHT22;16889;67.864;24.990;2023-04-24T23:39:58;-5.80;99.90
30063;DHT22;16889;67.864;24.990;2023-04-24T23:44:44;-5.80;99.90
30063;DHT22;16889;67.864;24.990;2023-04-24T23:49:30;-5.90;99.90
30063;DHT22;16889;67.864;24.990;2023-04-24T23:54:16;-5.90;99.90
30063;DHT22;16889;67.864;24.990;2023-04-24T23:59:02;-6.00;99.90
